Courage — WDC6907 — position and weather

sailwx.info

Track history (hours):
 
Tides and Currents Weather Stations Pressure Air Temp Water Temp Dewpoint Dewpoint Depression Visibility Wind Speed Wind Dir Waves Ship Positions

Courage

Owner: Crowley Technical Management, Inc, Jacksonville, FL. More information available from US FCC via Universal Licensing System and Coast Guard Vessel Documentation Center.

Last reported at 2014-Dec-20 07:25 UTC. Time now 2014-Dec-23 00:53 UTC.
Position N 38°01' W 076°13'.

Type: Ship. MMSI: 367063050.

Date/timePositionNaut miles runAvg speedWind from/ knotsBaromVisibWave heightAir tempDewpointWater temp
2014-Dec-20 07:25N 38°01' W 076°13'1212.8
2014-Dec-20 06:29N 38°12' W 076°17'3511.1
2014-Dec-20 03:21N 38°46' W 076°26'1012.0
2014-Dec-20 02:34N 38°55' W 076°25'4 4.4
2014-Dec-20 01:34N 38°60' W 076°23'1110.8
2014-Dec-20 00:34N 39°10' W 076°26'6 6.3
2014-Dec-19 23:33N 39°14' W 076°32'0 0.0
2014-Dec-19 22:33N 39°14' W 076°32'0 0.0
2014-Dec-19 21:33N 39°14' W 076°32'0 0.0
2014-Dec-19 20:33N 39°14' W 076°32'0 0.0
2014-Dec-19 19:34N 39°14' W 076°32'0 0.0
2014-Dec-19 18:34N 39°14' W 076°32'0 0.0
2014-Dec-19 17:33N 39°14' W 076°32'0 0.0
2014-Dec-19 16:33N 39°14' W 076°32'0 0.0
2014-Dec-19 15:34N 39°14' W 076°32'0 0.0
2014-Dec-19 14:33N 39°14' W 076°32'0 0.0
2014-Dec-19 13:33N 39°14' W 076°32'0 0.0
2014-Dec-19 12:34N 39°14' W 076°32'0 0.0
2014-Dec-19 11:33N 39°14' W 076°32'0 0.0
2014-Dec-19 10:33N 39°14' W 076°32'0 0.0
2014-Dec-19 09:33N 39°14' W 076°32'0 0.0
2014-Dec-19 08:33N 39°14' W 076°32'0 0.0
2014-Dec-19 07:33N 39°14' W 076°32'0 0.0
2014-Dec-19 06:34N 39°14' W 076°32'0 0.0
2014-Dec-19 05:34N 39°14' W 076°32'0 0.0
2014-Dec-19 04:33N 39°14' W 076°32'0 0.0
2014-Dec-19 03:33N 39°14' W 076°32'0 0.0
2014-Dec-19 02:33N 39°14' W 076°32'0 0.0
2014-Dec-19 01:34N 39°14' W 076°32'0 0.0
2014-Dec-19 00:33N 39°14' W 076°32'0 0.0
2014-Dec-18 23:33N 39°14' W 076°32'0 0.0
2014-Dec-18 22:34N 39°14' W 076°32'0 0.0
2014-Dec-18 21:33N 39°14' W 076°32'0 0.0
2014-Dec-18 20:34N 39°14' W 076°32'0 0.0
2014-Dec-18 19:34N 39°14' W 076°32'0 0.0
2014-Dec-18 18:34N 39°14' W 076°32'0 0.0
2014-Dec-18 17:33N 39°14' W 076°32'0 0.0
2014-Dec-18 16:34N 39°14' W 076°32'0 0.0
2014-Dec-18 15:33N 39°14' W 076°32'0 0.0
2014-Dec-18 14:33N 39°14' W 076°32'0 0.0
2014-Dec-18 13:34N 39°14' W 076°32'0 0.0
2014-Dec-18 12:33N 39°14' W 076°32'2 1.9
2014-Dec-18 11:34N 39°13' W 076°31'1010.4
2014-Dec-18 10:33N 39°04' W 076°24'1414.1
2014-Dec-18 09:33N 38°50' W 076°24'4615.1
2014-Dec-18 06:31N 38°05' W 076°13'  
2014-Dec-14 20:33N 27°01' W 079°48'2017.7
2014-Dec-14 19:24N 26°41' W 079°49'1417.2
2014-Dec-14 18:33N 26°26' W 079°49'1716.6
2014-Dec-14 17:33N 26°10' W 079°48'1716.8
2014-Dec-14 16:33N 25°53' W 079°49'1716.8
2014-Dec-14 15:33N 25°36' W 079°53'  
2014-Dec-12 01:33N 29°21' W 094°46'2 1.8
2014-Dec-12 00:33N 29°19' W 094°47'0 0.0
2014-Dec-11 23:33N 29°19' W 094°47'0 0.0
2014-Dec-11 21:21N 29°19' W 094°47'3 0.5
2014-Dec-11 16:31N 29°21' W 094°45'  
Track history (hours):
 
Tides and Currents Weather Stations Pressure Air Temp Water Temp Dewpoint Dewpoint Depression Visibility Wind Speed Wind Dir Waves Ship Positions

Courage

Owner: Crowley Technical Management, Inc, Jacksonville, FL. More information available from US FCC via Universal Licensing System and Coast Guard Vessel Documentation Center.

Last reported at 2014-Dec-20 07:25 UTC. Time now 2014-Dec-23 00:53 UTC.
Position N 38°01' W 076°13'.

Type: Ship. MMSI: 367063050.

Date/timePositionNaut miles runAvg speedWind from/ knotsBaromVisibWave heightAir tempDewpointWater temp
2014-Dec-20 07:25N 38°01' W 076°13'1212.8
2014-Dec-20 06:29N 38°12' W 076°17'3511.1
2014-Dec-20 03:21N 38°46' W 076°26'1012.0
2014-Dec-20 02:34N 38°55' W 076°25'4 4.4
2014-Dec-20 01:34N 38°60' W 076°23'1110.8
2014-Dec-20 00:34N 39°10' W 076°26'6 6.3
2014-Dec-19 23:33N 39°14' W 076°32'0 0.0
2014-Dec-19 22:33N 39°14' W 076°32'0 0.0
2014-Dec-19 21:33N 39°14' W 076°32'0 0.0
2014-Dec-19 20:33N 39°14' W 076°32'0 0.0
2014-Dec-19 19:34N 39°14' W 076°32'0 0.0
2014-Dec-19 18:34N 39°14' W 076°32'0 0.0
2014-Dec-19 17:33N 39°14' W 076°32'0 0.0
2014-Dec-19 16:33N 39°14' W 076°32'0 0.0
2014-Dec-19 15:34N 39°14' W 076°32'0 0.0
2014-Dec-19 14:33N 39°14' W 076°32'0 0.0
2014-Dec-19 13:33N 39°14' W 076°32'0 0.0
2014-Dec-19 12:34N 39°14' W 076°32'0 0.0
2014-Dec-19 11:33N 39°14' W 076°32'0 0.0
2014-Dec-19 10:33N 39°14' W 076°32'0 0.0
2014-Dec-19 09:33N 39°14' W 076°32'0 0.0
2014-Dec-19 08:33N 39°14' W 076°32'0 0.0
2014-Dec-19 07:33N 39°14' W 076°32'0 0.0
2014-Dec-19 06:34N 39°14' W 076°32'0 0.0
2014-Dec-19 05:34N 39°14' W 076°32'0 0.0
2014-Dec-19 04:33N 39°14' W 076°32'0 0.0
2014-Dec-19 03:33N 39°14' W 076°32'0 0.0
2014-Dec-19 02:33N 39°14' W 076°32'0 0.0
2014-Dec-19 01:34N 39°14' W 076°32'0 0.0
2014-Dec-19 00:33N 39°14' W 076°32'0 0.0
2014-Dec-18 23:33N 39°14' W 076°32'0 0.0
2014-Dec-18 22:34N 39°14' W 076°32'0 0.0
2014-Dec-18 21:33N 39°14' W 076°32'0 0.0
2014-Dec-18 20:34N 39°14' W 076°32'0 0.0
2014-Dec-18 19:34N 39°14' W 076°32'0 0.0
2014-Dec-18 18:34N 39°14' W 076°32'0 0.0
2014-Dec-18 17:33N 39°14' W 076°32'0 0.0
2014-Dec-18 16:34N 39°14' W 076°32'0 0.0
2014-Dec-18 15:33N 39°14' W 076°32'0 0.0
2014-Dec-18 14:33N 39°14' W 076°32'0 0.0
2014-Dec-18 13:34N 39°14' W 076°32'0 0.0
2014-Dec-18 12:33N 39°14' W 076°32'2 1.9
2014-Dec-18 11:34N 39°13' W 076°31'1010.4
2014-Dec-18 10:33N 39°04' W 076°24'1414.1
2014-Dec-18 09:33N 38°50' W 076°24'4615.1
2014-Dec-18 06:31N 38°05' W 076°13'  
2014-Dec-14 20:33N 27°01' W 079°48'2017.7
2014-Dec-14 19:24N 26°41' W 079°49'1417.2
2014-Dec-14 18:33N 26°26' W 079°49'1716.6
2014-Dec-14 17:33N 26°10' W 079°48'1716.8
2014-Dec-14 16:33N 25°53' W 079°49'1716.8
2014-Dec-14 15:33N 25°36' W 079°53'  
2014-Dec-12 01:33N 29°21' W 094°46'2 1.8
2014-Dec-12 00:33N 29°19' W 094°47'0 0.0
2014-Dec-11 23:33N 29°19' W 094°47'0 0.0
2014-Dec-11 21:21N 29°19' W 094°47'3 0.5
2014-Dec-11 16:31N 29°21' W 094°45'  

Dump ship's entire track history